• Join FlightAware (Why Join?)
  • Login
  • US Flag 
09:16PM EDT


 

Airport Tracker/Info


-or-


 

Live Flight TrackerFlight Track Log ✈ AIP5404 ✈ 24-May-2012 ✈ KRAP - KFSD

Flight Track Log - Related Links

Times and Time Zones

All times are in EDT time to prevent confusion due to time zone crossing. See the AIP5404 flight status page for this flight to view local times or setup timezone preferences in your user account.

Time Position Orientation Groundspeed Altitude Reporting Facility
EDT Latitude Longitude Course Direction KTS MPH feet Rate Location/Type
01:31AM 44.0508 -103.0636 41° Northeast 117 135 3,800  Level Denver Center
01:32AM 44.0797 -103.0289 99° East 163 188 5,900 1,980 Climbing Denver Center
01:33AM 44.0725 -102.9661 100° East 170 196 8,100 2,040 Climbing Denver Center
01:34AM 44.0661 -102.9147 94° East 203 234 9,800 2,160 Climbing Denver Center
01:35AM 44.0625 -102.8450 100° East 171 197 12,200 2,100 Climbing Denver Center
01:36AM 44.0533 -102.7706 99° East 176 203 14,100 1,740 Climbing Denver Center
01:37AM 44.0447 -102.6928 97° East 195 224 15,800 1,800 Climbing Denver Center
01:38AM 44.0381 -102.6147 94° East 201 231 17,800 1,920 Climbing Denver Center
01:39AM 44.0342 -102.5383 99° East 201 231 19,700 1,500 Climbing Denver Center
01:40AM 44.0253 -102.4594 102° East 199 229 20,900 600 Climbing Denver Center
01:41AM 44.0114 -102.3661 96° East 237 273 21,000  Climbing Denver Center
01:42AM 44.0036 -102.2581 95° East 281 323 21,000  Level Denver Center
01:43AM 43.9969 -102.1483 95° East 287 330 21,100  Climbing Denver Center
01:44AM 43.9900 -102.0356 94° East 290 334 21,000 -60 Descending Denver Center
01:45AM 43.9844 -101.9206 94° East 295 339 21,000 -60 Level Denver Center
01:46AM 43.9786 -101.8047 93° East 299 344 20,900 -660 Descending Denver Center
01:47AM 43.9739 -101.6889 92° East 301 346 19,700 -1,020 Descending Denver Center
01:48AM 43.9714 -101.5786 89° East 294 338 18,900 -360 Descending Denver Center
01:49AM 43.9733 -101.4728 93° East 285 328 19,000  Climbing Denver Center
01:50AM 43.9689 -101.3667 96° East 277 319 19,000  Level Denver Center
01:51AM 43.9608 -101.2614 94° East 275 316 19,000  Level Denver Center
01:52AM 43.9550 -101.1342 93° East 276 318 19,000  Level Denver Center
01:53AM 43.9511 -101.0269 92° East 277 319 19,000  Level Denver Center
01:54AM 43.9481 -100.9211 95° East 280 322 19,000  Level Minneapolis Center
01:55AM 43.9408 -100.8092 94° East 285 328 19,000  Level Minneapolis Center
01:56AM 43.9347 -100.6950 98° East 289 333 19,000  Level Minneapolis Center
01:57AM 43.9239 -100.5819 96° East 292 336 19,000  Level Minneapolis Center
01:58AM 43.9156 -100.4686 97° East 294 338 19,000  Level Minneapolis Center
01:59AM 43.9036 -100.3317 96° East 297 342 19,000 -60 Level Minneapolis Center
02:00AM 43.8950 -100.2228 96° East 293 337 18,900  Descending Minneapolis Center
02:01AM 43.8867 -100.1103 96° East 292 336 19,000  Climbing Minneapolis Center
02:02AM 43.8778 -99.9981 96° East 293 337 18,900 -720 Descending Minneapolis Center
02:03AM 43.8689 -99.8856 96° East 293 337 17,600 -960 Descending Minneapolis Center
02:04AM 43.8594 -99.7700 97° East 296 341 17,000 -360 Descending Minneapolis Center
02:05AM 43.8503 -99.6594 99° East 296 341 16,900 -60 Descending Minneapolis Center
02:06AM 43.8386 -99.5525 98° East 289 333 16,900 -360 Level Minneapolis Center
02:07AM 43.8269 -99.4431 96° East 288 331 16,200 -960 Descending Minneapolis Center
02:08AM 43.8186 -99.3331 95° East 288 331 15,000 -600 Descending Minneapolis Center
02:09AM 43.8119 -99.2306 96° East 278 320 15,000  Level Minneapolis Center
02:10AM 43.8036 -99.1286 96° East 270 311 15,000  Level Minneapolis Center
02:11AM 43.7950 -99.0233 97° East 272 313 15,100  Climbing Minneapolis Center
02:12AM 43.7853 -98.9142 97° East 281 323 15,100  Level Minneapolis Center
02:13AM 43.7756 -98.8028 97° East 288 331 15,100  Level Minneapolis Center
02:14AM 43.7661 -98.6911 96° East 291 335 15,100  Level Minneapolis Center
02:15AM 43.7581 -98.5889 96° East 291 335 15,100 -60 Level Minneapolis Center
02:16AM 43.7494 -98.4786 98° East 288 331 15,000 -60 Descending Minneapolis Center
02:17AM 43.7389 -98.3686 97° East 286 329 15,000  Level Minneapolis Center
02:18AM 43.7292 -98.2597 98° East 284 327 15,000  Level Minneapolis Center
02:19AM 43.7186 -98.1525 98° East 281 323 15,000  Level Minneapolis Center
02:20AM 43.7075 -98.0494 97° East 274 315 15,100  Climbing Minneapolis Center
02:21AM 43.6983 -97.9453 95° East 271 312 15,000 -720 Descending Minneapolis Center
02:22AM 43.6914 -97.8358 93° East 276 318 13,700 -1,320 Descending Minneapolis Center
02:23AM 43.6875 -97.7264 92° East 280 322 12,400 -1,200 Descending Minneapolis Center
02:24AM 43.6842 -97.6158 96° East 283 326 11,300 -1,080 Descending Minneapolis Center
02:25AM 43.6764 -97.5064 101° East 282 325 10,300 -1,020 Descending Minneapolis Center
02:26AM 43.6619 -97.3992 101° East 281 323 9,300 -900 Descending Minneapolis Center
02:27AM 43.6467 -97.2922 99° East 280 322 8,600 -900 Descending Minneapolis Center
02:28AM 43.6344 -97.1850 99° East 280 322 7,500 -1,260 Descending Minneapolis Center
02:29AM 43.6222 -97.0822 97° East 277 319 6,100 -1,200 Descending Minneapolis Center
02:30AM 43.6153 -97.0017 92° East 244 281 5,100 -600 Descending Minneapolis Center
02:31AM 43.6136 -96.9275 94° East 210 242 4,900 -540 Descending Minneapolis Center
02:32AM 43.6100 -96.8564 89° East 193 222 4,100 -540 Descending Minneapolis Center
02:33AM 43.6108 -96.8031 82° East 167 192 3,900 -300 Descending Minneapolis Center
02:34AM 43.6156 -96.7575 242° Southwest 148 170 3,500 -540 Descending Minneapolis Center
02:35AM 43.6058 -96.7828 242° Southwest 174 200 2,900 -600 Descending Minneapolis Center